createdAt,value
2019-04-29T00:00:50.601Z,5.30
2019-04-29T00:03:19.620Z,5.20
2019-04-29T00:05:48.836Z,5.10
2019-04-29T00:08:17.881Z,5.10
2019-04-29T00:10:46.909Z,5.10
2019-04-29T00:13:16.137Z,5.10
2019-04-29T00:15:54.421Z,5.10
2019-04-29T00:18:29.796Z,5.10
2019-04-29T00:20:58.766Z,5.10
2019-04-29T00:23:27.836Z,5.10
2019-04-29T00:25:56.960Z,5.10
2019-04-29T00:28:26.005Z,5.10
2019-04-29T00:30:55.122Z,5.10
2019-04-29T00:33:24.241Z,5.10
2019-04-29T00:35:53.264Z,5.10
2019-04-29T00:38:53.516Z,5.10
2019-04-29T00:41:44.746Z,5.10
2019-04-29T00:44:15.248Z,5.10
2019-04-29T00:46:44.360Z,5.00
2019-04-29T00:49:13.480Z,5.00
2019-04-29T00:51:42.517Z,5.00
2019-04-29T00:54:21.523Z,5.10
2019-04-29T00:56:50.556Z,5.10
2019-04-29T00:59:19.605Z,5.00
2019-04-29T01:01:49.811Z,5.00
2019-04-29T01:04:18.898Z,5.00
2019-04-29T01:06:47.934Z,5.00
2019-04-29T01:09:18.346Z,5.00
2019-04-29T01:11:47.395Z,5.00
2019-04-29T01:14:16.444Z,5.00
2019-04-29T01:16:45.485Z,4.90
2019-04-29T01:19:14.604Z,5.00
2019-04-29T01:21:43.646Z,5.00
2019-04-29T01:24:12.689Z,4.90
2019-04-29T01:27:12.689Z,4.90
2019-04-29T01:29:41.802Z,4.90
2019-04-29T01:32:11.031Z,4.90
2019-04-29T01:34:52.110Z,4.90
2019-04-29T01:37:23.893Z,4.90
2019-04-29T01:40:00.776Z,4.90
2019-04-29T01:42:33.744Z,4.90
2019-04-29T01:45:02.840Z,4.90
2019-04-29T01:47:31.864Z,4.90
2019-04-29T01:50:00.756Z,4.80
2019-04-29T01:52:29.768Z,4.80
2019-04-29T01:54:58.656Z,4.90
2019-04-29T01:57:27.670Z,4.80
2019-04-29T01:59:56.736Z,4.80
2019-04-29T02:02:25.754Z,4.90
2019-04-29T02:04:54.716Z,4.90
2019-04-29T02:07:23.759Z,4.90
2019-04-29T02:10:04.568Z,5.00
2019-04-29T02:12:33.526Z,5.00
2019-04-29T02:15:02.629Z,5.00
2019-04-29T02:17:31.673Z,5.00
2019-04-29T02:20:00.696Z,5.00
2019-04-29T02:22:36.024Z,5.00
2019-04-29T02:25:10.756Z,5.00
2019-04-29T02:27:39.772Z,5.00
2019-04-29T02:30:09.797Z,5.00
2019-04-29T02:32:38.828Z,5.00
2019-04-29T02:35:07.873Z,5.00
2019-04-29T02:37:39.664Z,5.00
2019-04-29T02:40:19.045Z,5.00
2019-04-29T02:42:53.832Z,5.10
2019-04-29T02:45:26.745Z,5.10
2019-04-29T02:47:55.785Z,5.00
2019-04-29T02:50:24.871Z,5.00
2019-04-29T02:52:53.954Z,5.10
2019-04-29T02:55:28.769Z,5.10
2019-04-29T02:58:03.809Z,5.10
2019-04-29T03:01:00.842Z,5.10
2019-04-29T03:03:37.901Z,5.10
2019-04-29T03:06:06.950Z,5.10
2019-04-29T03:08:36.065Z,5.10
2019-04-29T03:11:05.098Z,5.10
2019-04-29T03:13:34.538Z,5.10
2019-04-29T03:16:03.575Z,5.20
2019-04-29T03:18:34.465Z,5.20
2019-04-29T03:21:12.770Z,5.20
2019-04-29T03:23:41.803Z,5.20
2019-04-29T03:26:10.842Z,5.10
2019-04-29T03:28:39.873Z,5.10
2019-04-29T03:31:08.897Z,5.10
2019-04-29T03:33:37.925Z,5.10
2019-04-29T03:36:06.967Z,5.00
2019-04-29T03:38:35.990Z,5.10
2019-04-29T03:41:05.025Z,5.00
2019-04-29T03:43:34.056Z,5.00
2019-04-29T03:46:03.073Z,5.00
2019-04-29T03:48:32.110Z,5.00
2019-04-29T03:51:05.372Z,5.00
2019-04-29T03:53:34.452Z,5.00
2019-04-29T03:56:03.486Z,5.00
2019-04-29T03:58:32.432Z,5.00
2019-04-29T04:01:18.979Z,5.00
2019-04-29T04:03:52.741Z,4.90
2019-04-29T04:06:40.888Z,4.90
2019-04-29T04:09:15.694Z,4.80
2019-04-29T04:11:44.833Z,4.80
2019-04-29T04:14:13.868Z,4.80
2019-04-29T04:17:00.720Z,4.80
2019-04-29T04:19:30.937Z,4.80
2019-04-29T04:21:59.979Z,4.90
2019-04-29T04:24:29.030Z,4.90
2019-04-29T04:26:58.040Z,4.90
2019-04-29T04:29:27.093Z,4.90
2019-04-29T04:31:56.146Z,4.90
2019-04-29T04:34:26.187Z,4.90
2019-04-29T04:36:55.140Z,4.90
2019-04-29T04:39:25.245Z,4.90
2019-04-29T04:41:54.352Z,5.00
2019-04-29T04:44:25.375Z,5.00
2019-04-29T04:46:54.409Z,5.00
2019-04-29T04:49:23.431Z,5.00
2019-04-29T04:51:52.473Z,5.10
2019-04-29T04:54:21.453Z,5.20
2019-04-29T04:56:50.552Z,5.20
2019-04-29T04:59:19.579Z,5.10
2019-04-29T05:01:48.505Z,5.20
2019-04-29T05:04:17.536Z,5.20
2019-04-29T05:06:46.568Z,5.30
2019-04-29T05:15:55.357Z,5.40
2019-04-29T05:18:24.397Z,5.40
2019-04-29T05:20:53.353Z,5.40
2019-04-29T05:23:22.396Z,5.40
2019-04-29T05:25:51.425Z,5.40
2019-04-29T05:28:20.481Z,5.40
2019-04-29T05:30:49.517Z,5.40
2019-04-29T05:33:18.728Z,5.40
2019-04-29T05:35:56.611Z,5.40
2019-04-29T05:38:28.061Z,5.40
2019-04-29T05:40:57.285Z,5.40
2019-04-29T05:43:39.096Z,5.40
2019-04-29T05:46:30.188Z,5.40
2019-04-29T05:49:02.513Z,5.40
2019-04-29T05:51:44.859Z,5.40
2019-04-29T05:54:14.356Z,5.40
2019-04-29T05:56:43.395Z,5.40
2019-04-29T05:59:13.029Z,5.50
2019-04-29T06:01:47.258Z,5.50
2019-04-29T06:04:16.338Z,5.50
2019-04-29T06:06:44.628Z,5.50
2019-04-29T06:09:16.873Z,5.50
2019-04-29T06:11:44.437Z,5.60
2019-04-29T06:14:13.453Z,5.50
2019-04-29T06:16:42.509Z,5.60
2019-04-29T06:19:11.557Z,5.60
2019-04-29T06:21:40.596Z,5.60
2019-04-29T06:24:09.634Z,5.80
2019-04-29T06:26:38.679Z,5.80
2019-04-29T06:29:07.712Z,5.90
2019-04-29T06:31:37.624Z,5.90
2019-04-29T06:34:06.714Z,6.00
2019-04-29T06:36:35.784Z,6.00
2019-04-29T06:39:06.808Z,6.00
2019-04-29T06:41:40.529Z,6.10
2019-04-29T06:44:15.900Z,6.20
2019-04-29T06:46:39.264Z,6.20
2019-04-29T06:49:10.349Z,6.30
2019-04-29T06:51:39.337Z,6.30
2019-04-29T06:54:08.369Z,6.30
2019-04-29T06:56:37.319Z,6.30
2019-04-29T06:59:07.582Z,6.30
2019-04-29T07:01:37.597Z,6.30
2019-04-29T07:04:07.685Z,6.30
2019-04-29T07:06:36.716Z,6.20
2019-04-29T07:09:06.880Z,6.20
2019-04-29T07:11:36.627Z,6.10
2019-04-29T07:14:06.756Z,6.10
2019-04-29T07:16:35.805Z,6.00
2019-04-29T07:19:04.832Z,6.10
2019-04-29T07:21:33.871Z,6.10
2019-04-29T07:24:02.976Z,6.10
2019-04-29T07:26:32.011Z,6.10
2019-04-29T07:29:01.052Z,6.10
2019-04-29T07:31:33.339Z,6.10
2019-04-29T07:34:00.668Z,6.10
2019-04-29T07:36:29.745Z,6.10
2019-04-29T07:38:58.774Z,6.10
2019-04-29T07:41:27.820Z,6.20
2019-04-29T07:43:56.872Z,6.20
2019-04-29T07:46:36.353Z,6.30
2019-04-29T07:49:05.817Z,6.30
2019-04-29T07:51:39.334Z,6.30
2019-04-29T07:54:05.711Z,6.30
2019-04-29T07:56:37.824Z,6.30
2019-04-29T07:59:05.538Z,6.30
2019-04-29T08:01:34.581Z,6.40
2019-04-29T08:04:03.627Z,6.40
2019-04-29T08:06:38.141Z,6.40
2019-04-29T08:09:09.560Z,6.30
2019-04-29T08:11:38.438Z,6.40
2019-04-29T08:14:07.481Z,6.40
2019-04-29T08:16:36.526Z,6.40
2019-04-29T08:19:05.683Z,6.40
2019-04-29T08:21:34.823Z,6.30
2019-04-29T08:24:03.931Z,6.30
2019-04-29T08:26:33.611Z,6.30
2019-04-29T08:29:03.720Z,6.40
2019-04-29T08:31:32.739Z,6.40
2019-04-29T08:34:01.786Z,6.50
2019-04-29T08:36:30.826Z,6.50
2019-04-29T08:39:08.419Z,6.60
2019-04-29T08:41:30.628Z,6.60
2019-04-29T08:44:17.692Z,6.60
2019-04-29T08:46:56.222Z,6.60
2019-04-29T08:49:25.260Z,6.60
2019-04-29T08:51:54.312Z,6.60
2019-04-29T08:54:23.356Z,6.70
2019-04-29T08:57:03.107Z,6.80
2019-04-29T08:59:24.461Z,6.70
2019-04-29T09:01:53.915Z,6.70
2019-04-29T09:04:22.952Z,6.70
2019-04-29T09:06:51.982Z,6.70
2019-04-29T09:09:29.124Z,6.80
2019-04-29T09:11:54.308Z,6.80
2019-04-29T09:14:23.340Z,6.80
2019-04-29T09:16:52.432Z,6.90
2019-04-29T09:19:21.471Z,6.90
2019-04-29T09:21:54.304Z,6.90
2019-04-29T09:24:23.348Z,7.00
2019-04-29T09:27:11.439Z,7.00
2019-04-29T09:29:40.551Z,7.10
2019-04-29T09:32:09.649Z,7.20
2019-04-29T09:34:38.684Z,7.20
2019-04-29T09:37:07.729Z,7.20
2019-04-29T09:39:43.340Z,7.10
2019-04-29T09:42:30.778Z,7.20
2019-04-29T09:45:19.574Z,7.20
2019-04-29T09:47:48.713Z,7.30
2019-04-29T09:50:17.762Z,7.50
2019-04-29T09:52:46.788Z,7.70
2019-04-29T09:55:16.420Z,8.00
2019-04-29T09:57:45.445Z,8.30
2019-04-29T10:00:41.022Z,8.70
2019-04-29T10:03:27.778Z,9.00
2019-04-29T10:06:18.873Z,9.20
2019-04-29T10:08:47.973Z,9.30
2019-04-29T10:11:20.377Z,9.50
2019-04-29T10:13:49.451Z,9.50
2019-04-29T10:16:25.088Z,9.70
2019-04-29T10:19:05.316Z,9.70
2019-04-29T10:21:32.346Z,9.70
2019-04-29T10:24:01.444Z,9.60
2019-04-29T10:26:30.481Z,9.40
2019-04-29T10:29:03.722Z,9.20
2019-04-29T10:31:32.821Z,9.30
2019-04-29T10:34:03.805Z,9.20
2019-04-29T10:36:32.933Z,9.10
2019-04-29T10:39:13.589Z,9.10
2019-04-29T10:41:43.606Z,9.00
2019-04-29T10:44:28.624Z,9.00
2019-04-29T10:47:17.132Z,8.90
2019-04-29T10:49:58.057Z,8.90
2019-04-29T10:52:27.181Z,8.80
2019-04-29T10:54:57.564Z,8.70
2019-04-29T10:57:29.263Z,8.60
2019-04-29T11:00:03.409Z,8.60
2019-04-29T11:02:39.600Z,8.70
2019-04-29T11:05:17.884Z,8.70
2019-04-29T11:07:47.136Z,8.70
2019-04-29T11:10:25.336Z,8.80
2019-04-29T11:12:53.941Z,8.80
2019-04-29T11:15:28.464Z,8.80
2019-04-29T11:17:59.222Z,8.80
2019-04-29T11:20:27.357Z,9.00
2019-04-29T11:23:16.575Z,9.20
2019-04-29T11:26:02.413Z,9.40
2019-04-29T11:28:33.363Z,9.70
2019-04-29T11:31:02.558Z,9.90
2019-04-29T11:33:40.161Z,10.00
2019-04-29T11:36:10.920Z,9.90
2019-04-29T11:38:40.766Z,10.20
2019-04-29T11:41:12.222Z,10.40
2019-04-29T11:43:40.781Z,10.50
2019-04-29T11:46:14.149Z,10.50
2019-04-29T11:48:41.034Z,10.50
2019-04-29T11:51:20.708Z,10.60
2019-04-29T11:53:49.836Z,10.80
2019-04-29T11:56:18.889Z,11.00
2019-04-29T11:59:06.968Z,11.10
2019-04-29T12:01:50.972Z,11.00
2019-04-29T12:04:41.979Z,11.00
2019-04-29T12:07:09.428Z,11.00
2019-04-29T12:09:38.465Z,11.00
2019-04-29T12:12:12.641Z,10.90
2019-04-29T12:14:45.087Z,10.80
2019-04-29T12:17:19.334Z,10.70
2019-04-29T12:19:49.589Z,10.70
2019-04-29T12:22:28.421Z,10.70
2019-04-29T12:24:49.324Z,10.90
2019-04-29T12:27:19.886Z,10.80
2019-04-29T12:29:54.324Z,10.80
2019-04-29T12:32:28.236Z,10.70
2019-04-29T12:35:16.748Z,10.60
2019-04-29T12:38:18.965Z,10.60
2019-04-29T12:41:20.144Z,10.90
2019-04-29T12:43:54.103Z,11.00
2019-04-29T12:46:25.377Z,11.40
2019-04-29T12:48:54.415Z,11.60
2019-04-29T12:51:23.373Z,11.80
2019-04-29T12:53:52.413Z,11.90
2019-04-29T12:56:31.361Z,11.80
2019-04-29T12:59:01.848Z,11.70
2019-04-29T13:01:58.573Z,11.80
2019-04-29T13:04:54.712Z,11.70
2019-04-29T13:07:43.136Z,11.60
2019-04-29T13:10:20.463Z,11.60
2019-04-29T13:12:49.519Z,11.60
2019-04-29T13:15:33.292Z,11.40
2019-04-29T13:18:12.696Z,11.30
2019-04-29T13:20:37.647Z,11.20
2019-04-29T13:23:17.758Z,11.30
2019-04-29T13:25:37.459Z,11.40
2019-04-29T13:28:06.492Z,11.50
2019-04-29T13:30:35.597Z,11.50
2019-04-29T13:33:06.342Z,11.60
2019-04-29T13:35:35.740Z,11.60
2019-04-29T13:38:04.811Z,11.80
2019-04-29T13:40:37.760Z,11.70
2019-04-29T13:43:07.819Z,11.80
2019-04-29T13:45:49.105Z,11.90
2019-04-29T13:48:55.433Z,11.90
2019-04-29T13:51:34.777Z,12.00
2019-04-29T13:53:48.564Z,12.00
2019-04-29T13:56:32.717Z,12.20
2019-04-29T13:58:48.477Z,12.20
2019-04-29T14:01:33.525Z,12.20
2019-04-29T14:04:24.849Z,12.10
2019-04-29T14:06:56.948Z,12.10
2019-04-29T14:09:24.621Z,12.10
2019-04-29T14:12:01.813Z,12.00
2019-04-29T14:14:25.049Z,11.80
2019-04-29T14:17:11.603Z,11.70
2019-04-29T14:19:40.637Z,11.40
2019-04-29T14:21:56.749Z,11.30
2019-04-29T14:24:25.801Z,11.10
2019-04-29T14:26:54.780Z,10.90
2019-04-29T14:29:28.165Z,10.80
2019-04-29T14:31:59.326Z,10.60
2019-04-29T14:34:42.528Z,10.50
2019-04-29T14:37:21.420Z,10.30
2019-04-29T14:39:42.420Z,10.20
2019-04-29T14:42:31.935Z,10.20
2019-04-29T14:45:09.024Z,10.10
2019-04-29T14:47:46.405Z,10.00
2019-04-29T14:50:20.294Z,10.10
2019-04-29T14:52:49.506Z,10.00
2019-04-29T14:55:19.925Z,10.00
2019-04-29T14:57:47.764Z,10.00
2019-04-29T15:00:35.950Z,10.00
2019-04-29T15:03:05.055Z,10.00
2019-04-29T15:05:34.133Z,10.00
2019-04-29T15:08:09.503Z,10.00
2019-04-29T15:10:39.544Z,10.00
2019-04-29T15:13:20.529Z,9.80
2019-04-29T15:16:04.477Z,9.80
2019-04-29T15:18:47.727Z,9.70
2019-04-29T15:21:32.361Z,9.70
2019-04-29T15:23:55.024Z,9.60
2019-04-29T15:26:24.056Z,9.60
2019-04-29T15:28:54.550Z,9.50
2019-04-29T15:31:24.012Z,9.40
2019-04-29T15:33:53.133Z,9.40
2019-04-29T15:36:22.245Z,9.30
2019-04-29T15:39:08.023Z,9.30
2019-04-29T15:41:29.753Z,9.30
2019-04-29T15:44:06.302Z,9.30
2019-04-29T15:46:23.548Z,9.30
2019-04-29T15:48:52.597Z,9.30
2019-04-29T15:51:21.542Z,9.30
2019-04-29T15:53:54.158Z,9.30
2019-04-29T15:56:28.885Z,9.30
2019-04-29T15:58:52.089Z,9.30
2019-04-29T16:01:27.213Z,9.30
2019-04-29T16:03:54.834Z,9.30
2019-04-29T16:06:40.073Z,9.30
2019-04-29T16:09:14.875Z,9.40
2019-04-29T16:12:13.936Z,9.30
2019-04-29T16:14:35.357Z,9.30
2019-04-29T16:17:04.428Z,9.20
2019-04-29T16:19:33.408Z,9.20
2019-04-29T16:22:02.454Z,9.20
2019-04-29T16:24:37.133Z,9.20
2019-04-29T16:27:08.583Z,9.20
2019-04-29T16:29:33.033Z,9.20
2019-04-29T16:32:03.160Z,9.20
2019-04-29T16:34:37.579Z,9.20
2019-04-29T16:37:03.508Z,9.20
2019-04-29T16:39:32.644Z,9.30
2019-04-29T16:42:14.208Z,9.40
2019-04-29T16:44:43.362Z,9.30
2019-04-29T16:47:13.696Z,9.40
2019-04-29T16:49:43.910Z,9.40
2019-04-29T16:52:14.086Z,9.40
2019-04-29T16:54:43.139Z,9.40
2019-04-29T16:57:12.093Z,9.40
2019-04-29T16:59:41.117Z,9.30
2019-04-29T17:02:10.261Z,9.30
2019-04-29T17:04:39.282Z,9.30
2019-04-29T17:07:13.526Z,9.30
2019-04-29T17:09:58.320Z,9.40
2019-04-29T17:12:29.346Z,9.40
2019-04-29T17:15:14.955Z,9.40
2019-04-29T17:17:31.445Z,9.40
2019-04-29T17:20:00.589Z,9.30
2019-04-29T17:22:29.653Z,9.30
2019-04-29T17:24:58.741Z,9.20
2019-04-29T17:27:53.243Z,9.20
2019-04-29T17:30:46.652Z,9.20
2019-04-29T17:33:28.859Z,9.10
2019-04-29T17:36:00.944Z,9.10
2019-04-29T17:38:30.017Z,9.00
2019-04-29T17:40:59.048Z,8.90
2019-04-29T17:43:45.564Z,8.90
2019-04-29T17:46:33.658Z,8.90
2019-04-29T17:49:33.703Z,8.90
2019-04-29T17:52:06.632Z,8.80
2019-04-29T17:54:39.453Z,8.80
2019-04-29T17:57:31.090Z,8.80
2019-04-29T18:00:09.562Z,8.80
2019-04-29T18:02:52.468Z,8.80
2019-04-29T18:05:34.399Z,8.80
2019-04-29T18:08:05.252Z,8.70
2019-04-29T18:10:40.309Z,8.60
2019-04-29T18:13:12.341Z,8.50
2019-04-29T18:15:57.593Z,8.50
2019-04-29T18:18:17.532Z,8.50
2019-04-29T18:21:15.141Z,8.50
2019-04-29T18:24:05.017Z,8.50
2019-04-29T18:26:48.090Z,8.50
2019-04-29T18:29:17.425Z,8.30
2019-04-29T18:31:46.652Z,8.20
2019-04-29T18:34:15.629Z,8.20
2019-04-29T18:36:45.800Z,8.20
2019-04-29T18:39:20.188Z,8.20
2019-04-29T18:41:49.680Z,8.10
2019-04-29T18:44:19.517Z,8.10
2019-04-29T18:46:53.401Z,8.00
2019-04-29T18:49:19.630Z,8.00
2019-04-29T18:51:48.672Z,8.00
2019-04-29T18:54:17.705Z,7.90
2019-04-29T18:56:46.752Z,7.80
2019-04-29T18:59:21.211Z,7.80
2019-04-29T19:01:49.305Z,7.80
2019-04-29T19:04:30.093Z,7.70
2019-04-29T19:07:02.154Z,7.70
2019-04-29T19:09:32.223Z,7.70
2019-04-29T19:12:02.091Z,7.70
2019-04-29T19:14:31.069Z,7.60
2019-04-29T19:17:01.360Z,7.60
2019-04-29T19:19:35.823Z,7.60
2019-04-29T19:22:09.202Z,7.60
2019-04-29T19:24:37.989Z,7.60
2019-04-29T19:27:09.857Z,7.50
2019-04-29T19:29:38.831Z,7.50
2019-04-29T19:32:08.474Z,7.50
2019-04-29T19:34:42.500Z,7.50
2019-04-29T19:37:08.439Z,7.50
2019-04-29T19:39:37.473Z,7.50
2019-04-29T19:42:06.517Z,7.40
2019-04-29T19:44:36.773Z,7.50
2019-04-29T19:47:05.913Z,7.40
2019-04-29T19:49:35.971Z,7.40
2019-04-29T19:52:05.100Z,7.50
2019-04-29T19:54:34.144Z,7.40
2019-04-29T19:57:06.967Z,7.40
2019-04-29T19:59:36.119Z,7.40
2019-04-29T20:02:09.360Z,7.40
2019-04-29T20:04:43.823Z,7.40
2019-04-29T20:07:13.517Z,7.40
2019-04-29T20:09:44.012Z,7.40
2019-04-29T20:12:16.894Z,7.40
2019-04-29T20:14:44.768Z,7.30
2019-04-29T20:17:32.080Z,7.30
2019-04-29T20:20:06.553Z,7.30
2019-04-29T20:22:41.590Z,7.30
2019-04-29T20:25:08.395Z,7.40
2019-04-29T20:27:38.028Z,7.30
2019-04-29T20:30:15.867Z,7.30
2019-04-29T20:32:38.802Z,7.30
2019-04-29T20:35:08.917Z,7.30
2019-04-29T20:37:38.283Z,7.30
2019-04-29T20:40:08.068Z,7.30
2019-04-29T20:42:40.434Z,7.20
2019-04-29T20:45:08.219Z,7.10
2019-04-29T20:47:40.761Z,7.10
2019-04-29T20:50:13.468Z,7.10
2019-04-29T20:53:01.972Z,7.20
2019-04-29T20:55:31.917Z,7.20
2019-04-29T20:58:00.017Z,7.20
2019-04-29T21:00:30.983Z,7.10
2019-04-29T21:03:04.283Z,7.10
2019-04-29T21:05:31.529Z,7.10
2019-04-29T21:08:03.290Z,7.10
2019-04-29T21:10:32.156Z,7.10
2019-04-29T21:13:29.412Z,7.10
2019-04-29T21:16:22.698Z,7.10
2019-04-29T21:18:54.891Z,7.10
2019-04-29T21:21:25.563Z,7.10
2019-04-29T21:23:55.301Z,7.10
2019-04-29T21:26:26.109Z,7.10
2019-04-29T21:28:55.625Z,7.10
2019-04-29T21:31:25.452Z,7.00
2019-04-29T21:33:58.670Z,7.00
2019-04-29T21:36:43.144Z,7.00
2019-04-29T21:39:27.479Z,7.00
2019-04-29T21:42:13.328Z,7.00
2019-04-29T21:44:42.311Z,7.00
2019-04-29T21:47:11.421Z,7.00
2019-04-29T21:49:45.289Z,7.00
2019-04-29T21:52:34.903Z,7.00
2019-04-29T21:55:05.213Z,7.00
2019-04-29T21:57:34.313Z,7.00
2019-04-29T22:00:05.574Z,7.00
2019-04-29T22:02:35.860Z,7.00
2019-04-29T22:05:09.484Z,7.00
2019-04-29T22:07:39.708Z,7.00
2019-04-29T22:10:09.216Z,7.00
2019-04-29T22:12:38.229Z,6.90
2019-04-29T22:15:07.493Z,6.90
2019-04-29T22:17:36.520Z,6.90
2019-04-29T22:20:08.228Z,6.90
2019-04-29T22:22:37.244Z,6.90
2019-04-29T22:25:10.128Z,6.90
2019-04-29T22:27:45.984Z,6.90
2019-04-29T22:30:18.505Z,6.90
2019-04-29T22:32:47.127Z,6.90
2019-04-29T22:35:17.516Z,7.00
2019-04-29T22:37:46.552Z,6.90
2019-04-29T22:40:17.434Z,7.00
2019-04-29T22:43:10.069Z,7.00
2019-04-29T22:45:36.400Z,7.00
2019-04-29T22:48:16.473Z,7.00
2019-04-29T22:50:38.181Z,7.00
2019-04-29T22:53:08.847Z,7.00
2019-04-29T22:55:38.881Z,7.00
2019-04-29T22:58:10.026Z,7.00
2019-04-29T23:00:39.068Z,6.90
2019-04-29T23:03:08.081Z,6.90
2019-04-29T23:05:37.937Z,6.90
2019-04-29T23:08:07.000Z,6.90
2019-04-29T23:10:36.024Z,6.90
2019-04-29T23:13:06.162Z,6.90
2019-04-29T23:15:35.814Z,6.90
2019-04-29T23:18:05.739Z,6.90
2019-04-29T23:20:52.470Z,6.90
2019-04-29T23:23:33.362Z,6.90
2019-04-29T23:25:59.844Z,6.90
2019-04-29T23:28:28.512Z,6.90
2019-04-29T23:30:57.532Z,6.90
2019-04-29T23:33:26.595Z,6.90
2019-04-29T23:35:56.090Z,6.90
2019-04-29T23:38:25.582Z,6.90
2019-04-29T23:40:56.305Z,6.90
2019-04-29T23:43:28.414Z,6.90
2019-04-29T23:46:00.210Z,6.90
2019-04-29T23:48:38.854Z,6.90
2019-04-29T23:50:58.381Z,6.80
2019-04-29T23:53:27.526Z,6.80
2019-04-29T23:56:00.219Z,6.70
2019-04-29T23:58:52.330Z,6.70
